createdAt,value
2023-02-27T00:00:41.929Z,69.70
2023-02-27T00:01:42.924Z,70.23
2023-02-27T00:02:42.004Z,70.05
2023-02-27T00:03:41.945Z,70.78
2023-02-27T00:04:41.897Z,70.57
2023-02-27T00:05:41.892Z,71.31
2023-02-27T00:06:41.883Z,71.20
2023-02-27T00:07:41.897Z,70.89
2023-02-27T00:08:41.895Z,71.41
2023-02-27T00:09:41.868Z,71.41
2023-02-27T00:10:41.852Z,71.20
2023-02-27T00:11:41.822Z,71.10
2023-02-27T00:12:41.840Z,71.31
2023-02-27T00:13:41.815Z,71.10
2023-02-27T00:14:41.813Z,70.99
2023-02-27T00:15:41.915Z,70.99
2023-02-27T00:16:41.793Z,70.99
2023-02-27T00:17:41.770Z,71.03
2023-02-27T00:18:41.795Z,71.34
2023-02-27T00:19:41.789Z,71.31
2023-02-27T00:20:41.737Z,70.99
2023-02-27T00:21:41.769Z,71.20
2023-02-27T00:22:41.819Z,70.99
2023-02-27T00:23:41.717Z,71.10
2023-02-27T00:24:41.738Z,71.31
2023-02-27T00:25:41.712Z,70.78
2023-02-27T00:26:41.694Z,70.78
2023-02-27T00:27:41.709Z,70.05
2023-02-27T00:28:41.678Z,71.20
2023-02-27T00:29:41.659Z,70.78
2023-02-27T00:30:41.683Z,70.99
2023-02-27T00:31:41.668Z,70.99
2023-02-27T00:32:41.642Z,70.89
2023-02-27T00:33:41.651Z,69.84
2023-02-27T00:34:41.607Z,70.78
2023-02-27T00:35:41.605Z,70.78
2023-02-27T00:36:41.588Z,70.57
2023-02-27T00:37:41.593Z,71.10
2023-02-27T00:38:41.593Z,70.89
2023-02-27T00:39:41.562Z,70.61
2023-02-27T00:40:41.567Z,71.03
2023-02-27T00:41:41.550Z,70.92
2023-02-27T00:42:41.568Z,71.31
2023-02-27T00:43:41.538Z,70.99
2023-02-27T00:44:41.528Z,70.78
2023-02-27T00:45:41.518Z,70.78
2023-02-27T00:46:41.543Z,70.99
2023-02-27T00:47:41.509Z,71.34
2023-02-27T00:48:41.493Z,71.23
2023-02-27T00:49:41.504Z,71.23
2023-02-27T00:50:41.465Z,70.89
2023-02-27T00:51:41.457Z,71.55
2023-02-27T00:52:41.438Z,71.34
2023-02-27T00:53:41.434Z,71.13
2023-02-27T00:54:41.437Z,71.10
2023-02-27T00:55:41.449Z,71.44
2023-02-27T00:56:41.412Z,72.18
2023-02-27T00:57:41.439Z,72.74
2023-02-27T00:58:41.391Z,72.42
2023-02-27T00:59:41.399Z,72.18
2023-02-27T01:00:41.408Z,72.18
2023-02-27T01:01:41.358Z,72.18
2023-02-27T01:02:41.470Z,71.89
2023-02-27T01:03:41.349Z,71.89
2023-02-27T01:04:41.359Z,73.15
2023-02-27T01:05:41.341Z,73.33
2023-02-27T01:06:41.312Z,73.96
2023-02-27T01:07:41.322Z,74.17
2023-02-27T01:08:41.285Z,74.41
2023-02-27T01:09:41.286Z,74.48
2023-02-27T01:10:41.280Z,74.10
2023-02-27T01:11:41.276Z,75.35
2023-02-27T01:12:41.323Z,74.69
2023-02-27T01:13:41.246Z,74.90
2023-02-27T01:14:41.244Z,74.48
2023-02-27T01:15:41.227Z,73.96
2023-02-27T01:16:41.217Z,74.06
2023-02-27T01:17:41.211Z,74.34
2023-02-27T01:18:41.223Z,73.54
2023-02-27T01:19:41.190Z,73.99
2023-02-27T01:20:41.175Z,73.57
2023-02-27T01:21:41.177Z,73.47
2023-02-27T01:22:41.162Z,73.68
2023-02-27T01:23:41.175Z,73.99
2023-02-27T01:24:41.203Z,73.36
2023-02-27T01:25:41.150Z,73.26
2023-02-27T01:26:41.130Z,73.89
2023-02-27T01:27:41.114Z,74.48
2023-02-27T01:28:41.101Z,74.48
2023-02-27T01:29:41.119Z,74.58
2023-02-27T01:30:41.115Z,74.48
2023-02-27T01:31:41.131Z,74.06
2023-02-27T01:32:41.149Z,73.82
2023-02-27T01:33:41.052Z,73.72
2023-02-27T01:34:41.069Z,73.82
2023-02-27T01:35:41.049Z,73.72
2023-02-27T01:36:41.036Z,74.38
2023-02-27T01:37:41.003Z,74.66
2023-02-27T01:38:41.033Z,73.96
2023-02-27T01:39:41.004Z,74.66
2023-02-27T01:40:41.005Z,74.80
2023-02-27T01:41:40.984Z,75.11
2023-02-27T01:42:40.969Z,74.69
2023-02-27T01:43:40.972Z,74.69
2023-02-27T01:44:40.945Z,75.21
2023-02-27T01:45:40.945Z,75.53
2023-02-27T01:46:40.938Z,75.63
2023-02-27T01:47:40.921Z,75.78
2023-02-27T01:48:40.932Z,74.87
2023-02-27T01:49:40.903Z,76.23
2023-02-27T01:50:40.889Z,75.18
2023-02-27T01:51:40.865Z,75.07
2023-02-27T01:52:40.862Z,74.97
2023-02-27T01:53:40.876Z,74.79
2023-02-27T01:54:40.860Z,75.67
2023-02-27T01:55:40.841Z,75.88
2023-02-27T01:56:40.843Z,76.82
2023-02-27T01:57:40.852Z,77.56
2023-02-27T01:58:41.830Z,77.24
2023-02-27T01:59:40.810Z,76.68
2023-02-27T02:00:40.811Z,76.47
2023-02-27T02:01:40.797Z,76.29
2023-02-27T02:02:40.789Z,76.61
2023-02-27T02:03:40.767Z,77.14
2023-02-27T02:04:40.750Z,76.40
2023-02-27T02:05:40.745Z,76.16
2023-02-27T02:06:40.750Z,76.61
2023-02-27T02:07:40.748Z,76.40
2023-02-27T02:08:40.727Z,77.10
2023-02-27T02:09:40.711Z,77.03
2023-02-27T02:10:40.699Z,76.72
2023-02-27T02:11:40.694Z,77.00
2023-02-27T02:12:40.700Z,76.89
2023-02-27T02:13:40.687Z,77.00
2023-02-27T02:14:40.659Z,76.79
2023-02-27T02:15:40.654Z,76.57
2023-02-27T02:16:40.734Z,76.57
2023-02-27T02:17:40.664Z,76.05
2023-02-27T02:18:40.626Z,76.16
2023-02-27T02:19:40.620Z,75.84
2023-02-27T02:20:40.614Z,75.84
2023-02-27T02:21:40.600Z,75.01
2023-02-27T02:22:40.609Z,75.98
2023-02-27T02:23:40.585Z,76.40
2023-02-27T02:24:40.558Z,76.19
2023-02-27T02:25:40.554Z,75.98
2023-02-27T02:26:40.555Z,76.19
2023-02-27T02:27:40.563Z,76.82
2023-02-27T02:28:40.543Z,76.40
2023-02-27T02:29:40.541Z,76.12
2023-02-27T02:30:40.600Z,76.54
2023-02-27T02:31:40.617Z,77.28
2023-02-27T02:32:40.516Z,77.28
2023-02-27T02:33:40.494Z,76.86
2023-02-27T02:34:40.478Z,76.86
2023-02-27T02:35:40.468Z,77.28
2023-02-27T02:36:40.467Z,78.01
2023-02-27T02:37:40.459Z,77.62
2023-02-27T02:38:40.429Z,77.62
2023-02-27T02:39:40.436Z,77.59
2023-02-27T02:40:40.438Z,77.17
2023-02-27T02:41:40.434Z,77.80
2023-02-27T02:42:40.398Z,76.96
2023-02-27T02:43:40.395Z,77.59
2023-02-27T02:44:40.384Z,76.72
2023-02-27T02:45:40.396Z,76.61
2023-02-27T02:46:40.367Z,76.29
2023-02-27T02:47:40.360Z,76.09
2023-02-27T02:48:40.354Z,76.51
2023-02-27T02:49:40.328Z,76.51
2023-02-27T02:50:40.331Z,76.96
2023-02-27T02:51:40.329Z,76.96
2023-02-27T02:52:40.318Z,77.07
2023-02-27T02:53:40.291Z,77.03
2023-02-27T02:54:40.283Z,77.48
2023-02-27T02:55:40.276Z,77.91
2023-02-27T02:56:40.258Z,77.56
2023-02-27T02:57:40.284Z,77.56
2023-02-27T02:58:40.274Z,78.53
2023-02-27T02:59:40.238Z,78.96
2023-02-27T03:00:40.229Z,78.75
2023-02-27T03:01:40.234Z,79.06
2023-02-27T03:02:40.222Z,78.85
2023-02-27T03:03:40.212Z,78.85
2023-02-27T03:04:40.221Z,78.96
2023-02-27T03:05:40.185Z,79.06
2023-02-27T03:06:40.194Z,79.06
2023-02-27T03:07:40.229Z,79.27
2023-02-27T03:08:40.165Z,79.58
2023-02-27T03:09:40.153Z,79.90
2023-02-27T03:10:40.154Z,79.06
2023-02-27T03:11:40.121Z,79.06
2023-02-27T03:12:40.127Z,78.75
2023-02-27T03:13:40.118Z,79.38
2023-02-27T03:14:40.120Z,78.85
2023-02-27T03:15:40.145Z,79.48
2023-02-27T03:16:40.077Z,79.27
2023-02-27T03:17:40.072Z,79.06
2023-02-27T03:18:40.061Z,79.80
2023-02-27T03:19:40.081Z,78.96
2023-02-27T03:20:40.053Z,79.06
2023-02-27T03:21:40.035Z,79.10
2023-02-27T03:22:40.057Z,79.73
2023-02-27T03:23:40.019Z,79.52
2023-02-27T03:24:40.019Z,79.06
2023-02-27T03:25:39.993Z,79.38
2023-02-27T03:26:39.992Z,78.75
2023-02-27T03:27:39.991Z,79.17
2023-02-27T03:28:39.964Z,78.85
2023-02-27T03:29:39.976Z,78.96
2023-02-27T03:30:39.970Z,79.06
2023-02-27T03:31:39.996Z,79.13
2023-02-27T03:32:39.918Z,79.06
2023-02-27T03:33:39.917Z,78.85
2023-02-27T03:34:39.920Z,79.06
2023-02-27T03:35:39.902Z,79.17
2023-02-27T03:36:39.884Z,79.06
2023-02-27T03:37:39.881Z,78.92
2023-02-27T03:38:39.872Z,78.96
2023-02-27T03:39:39.889Z,78.75
2023-02-27T03:40:39.845Z,79.83
2023-02-27T03:41:39.845Z,79.21
2023-02-27T03:42:39.839Z,79.94
2023-02-27T03:43:39.843Z,80.04
2023-02-27T03:44:39.828Z,80.36
2023-02-27T03:45:39.821Z,80.71
2023-02-27T03:46:39.844Z,80.92
2023-02-27T03:47:39.810Z,80.92
2023-02-27T03:48:39.795Z,81.02
2023-02-27T03:49:39.774Z,81.02
2023-02-27T03:50:39.764Z,80.60
2023-02-27T03:51:39.760Z,81.02
2023-02-27T03:52:39.750Z,81.48
2023-02-27T03:53:39.749Z,81.16
2023-02-27T03:54:39.721Z,81.48
2023-02-27T03:55:39.716Z,81.27
2023-02-27T03:56:39.709Z,81.70
2023-02-27T03:57:39.701Z,81.76
2023-02-27T03:58:39.712Z,81.55
2023-02-27T03:59:39.677Z,81.02
2023-02-27T04:00:39.674Z,81.55
2023-02-27T04:01:39.676Z,81.16
2023-02-27T04:02:39.648Z,81.02
2023-02-27T04:03:39.662Z,81.55
2023-02-27T04:04:39.672Z,81.24
2023-02-27T04:05:46.298Z,81.34
2023-02-27T04:06:39.644Z,81.65
2023-02-27T04:07:39.637Z,81.24
2023-02-27T04:08:39.603Z,81.02
2023-02-27T04:09:39.595Z,81.02
2023-02-27T04:10:39.590Z,81.24
2023-02-27T04:11:39.584Z,81.65
2023-02-27T04:12:39.577Z,81.90
2023-02-27T04:13:39.545Z,81.70
2023-02-27T04:14:39.552Z,82.53
2023-02-27T04:15:39.548Z,82.43
2023-02-27T04:16:39.544Z,82.64
2023-02-27T04:17:39.505Z,82.11
2023-02-27T04:18:39.532Z,82.07
2023-02-27T04:19:39.500Z,82.07
2023-02-27T04:20:39.517Z,81.97
2023-02-27T04:21:39.485Z,81.90
2023-02-27T04:22:39.475Z,82.29
2023-02-27T04:23:39.478Z,82.01
2023-02-27T04:24:39.470Z,82.22
2023-02-27T04:25:39.459Z,82.50
2023-02-27T04:26:39.420Z,82.85
2023-02-27T04:27:39.421Z,82.75
2023-02-27T04:28:39.439Z,82.95
2023-02-27T04:29:39.408Z,82.95
2023-02-27T04:30:39.407Z,83.27
2023-02-27T04:31:39.488Z,82.95
2023-02-27T04:32:39.479Z,82.95
2023-02-27T04:33:39.398Z,83.37
2023-02-27T04:34:39.368Z,83.27
2023-02-27T04:35:39.353Z,82.75
2023-02-27T04:36:39.350Z,82.75
2023-02-27T04:37:40.337Z,82.75
2023-02-27T04:38:39.325Z,82.95
2023-02-27T04:39:39.335Z,82.85
2023-02-27T04:40:39.329Z,82.95
2023-02-27T04:41:39.308Z,83.17
2023-02-27T04:42:39.304Z,83.27
2023-02-27T04:43:39.281Z,82.95
2023-02-27T04:44:39.301Z,82.95
2023-02-27T04:45:39.289Z,82.75
2023-02-27T04:46:39.269Z,83.06
2023-02-27T04:47:39.254Z,83.37
2023-02-27T04:48:39.236Z,83.17
2023-02-27T04:49:39.269Z,83.27
2023-02-27T04:50:39.241Z,83.80
2023-02-27T04:51:39.213Z,83.48
2023-02-27T04:52:39.208Z,83.37
2023-02-27T04:53:39.191Z,83.41
2023-02-27T04:54:39.184Z,83.27
2023-02-27T04:55:39.187Z,83.37
2023-02-27T04:56:39.165Z,83.37
2023-02-27T04:57:39.158Z,83.27
2023-02-27T04:58:39.153Z,83.31
2023-02-27T04:59:39.178Z,83.27
2023-02-27T05:00:39.162Z,83.59
2023-02-27T05:01:39.136Z,83.69
2023-02-27T05:02:39.229Z,83.41
2023-02-27T05:03:39.101Z,83.83
2023-02-27T05:04:39.085Z,83.83
2023-02-27T05:05:39.089Z,83.94
2023-02-27T05:06:39.068Z,84.05
2023-02-27T05:07:39.082Z,83.73
2023-02-27T05:08:39.060Z,83.62
2023-02-27T05:09:39.036Z,83.62
2023-02-27T05:10:39.043Z,83.31
2023-02-27T05:11:39.048Z,83.59
2023-02-27T05:12:39.011Z,83.83
2023-02-27T05:13:39.000Z,83.37
2023-02-27T05:14:38.992Z,83.62
2023-02-27T05:15:39.042Z,83.73
2023-02-27T05:16:39.010Z,83.62
2023-02-27T05:17:39.030Z,83.52
2023-02-27T05:18:38.972Z,83.52
2023-02-27T05:19:38.954Z,83.41
2023-02-27T05:20:38.963Z,83.83
2023-02-27T05:21:38.938Z,83.83
2023-02-27T05:22:38.930Z,83.83
2023-02-27T05:23:38.919Z,83.20
2023-02-27T05:24:38.924Z,83.62
2023-02-27T05:25:38.917Z,83.52
2023-02-27T05:26:38.879Z,83.31
2023-02-27T05:27:38.879Z,83.10
2023-02-27T05:28:38.862Z,83.31
2023-02-27T05:29:38.883Z,83.45
2023-02-27T05:30:38.895Z,83.62
2023-02-27T05:31:38.881Z,83.45
2023-02-27T05:32:38.967Z,83.76
2023-02-27T05:33:38.832Z,84.23
2023-02-27T05:34:38.823Z,84.33
2023-02-27T05:35:38.835Z,85.07
2023-02-27T05:36:38.804Z,85.07
2023-02-27T05:37:38.798Z,84.86
2023-02-27T05:38:38.788Z,84.65
2023-02-27T05:39:38.766Z,85.17
2023-02-27T05:40:38.761Z,84.96
2023-02-27T05:41:38.756Z,85.17
2023-02-27T05:42:38.743Z,84.86
2023-02-27T05:43:38.724Z,84.96
2023-02-27T05:44:38.730Z,85.17
2023-02-27T05:45:38.741Z,85.21
2023-02-27T05:46:38.715Z,85.00
2023-02-27T05:47:38.689Z,85.49
2023-02-27T05:48:38.675Z,85.42
2023-02-27T05:49:38.677Z,85.21
2023-02-27T05:50:38.673Z,85.74
2023-02-27T05:51:38.643Z,85.95
2023-02-27T05:52:38.632Z,86.16
2023-02-27T05:53:38.634Z,85.95
2023-02-27T05:54:38.614Z,86.16
2023-02-27T05:55:38.622Z,85.91
2023-02-27T05:56:38.625Z,85.17
2023-02-27T05:57:38.590Z,85.49
2023-02-27T05:58:38.588Z,85.03
2023-02-27T05:59:38.585Z,84.92
2023-02-27T06:00:38.562Z,85.13
2023-02-27T06:01:38.582Z,85.13
2023-02-27T06:02:38.546Z,84.71
2023-02-27T06:03:38.608Z,84.50
2023-02-27T06:04:38.528Z,84.61
2023-02-27T06:05:38.518Z,84.50
2023-02-27T06:06:38.508Z,84.40
2023-02-27T06:07:38.523Z,84.40
2023-02-27T06:08:38.506Z,84.61
2023-02-27T06:09:38.490Z,84.40
2023-02-27T06:10:38.474Z,84.50
2023-02-27T06:11:38.461Z,84.61
2023-02-27T06:12:38.473Z,84.36
2023-02-27T06:13:40.850Z,83.94
2023-02-27T06:14:38.447Z,84.15
2023-02-27T06:15:39.454Z,84.25
2023-02-27T06:16:38.474Z,84.05
2023-02-27T06:17:38.415Z,84.05
2023-02-27T06:18:38.402Z,83.83
2023-02-27T06:19:38.412Z,83.73
2023-02-27T06:20:38.389Z,83.69
2023-02-27T06:21:38.386Z,83.73
2023-02-27T06:22:38.509Z,83.69
2023-02-27T06:23:38.377Z,84.01
2023-02-27T06:24:38.350Z,83.48
2023-02-27T06:25:38.338Z,83.76
2023-02-27T06:26:38.360Z,83.02
2023-02-27T06:27:38.330Z,83.34
2023-02-27T06:28:38.337Z,82.71
2023-02-27T06:29:38.301Z,82.50
2023-02-27T06:30:38.318Z,83.02
2023-02-27T06:31:38.310Z,83.13
2023-02-27T06:32:38.279Z,82.81
2023-02-27T06:33:38.268Z,83.13
2023-02-27T06:34:38.247Z,82.29
2023-02-27T06:35:38.292Z,82.07
2023-02-27T06:36:38.251Z,82.46
2023-02-27T06:37:38.207Z,82.46
2023-02-27T06:38:38.213Z,81.83
2023-02-27T06:39:38.204Z,81.97
2023-02-27T06:40:38.193Z,81.87
2023-02-27T06:41:38.208Z,81.93
2023-02-27T06:42:38.172Z,82.46
2023-02-27T06:43:38.160Z,82.14
2023-02-27T06:44:38.148Z,81.83
2023-02-27T06:45:38.147Z,82.35
2023-02-27T06:46:38.241Z,82.25
2023-02-27T06:47:38.145Z,81.62
2023-02-27T06:48:38.120Z,81.93
2023-02-27T06:49:38.096Z,82.14
2023-02-27T06:50:38.096Z,81.93
2023-02-27T06:51:38.108Z,81.73
2023-02-27T06:52:38.094Z,82.14
2023-02-27T06:53:38.074Z,81.58
2023-02-27T06:54:38.065Z,81.90
2023-02-27T06:55:38.062Z,81.79
2023-02-27T06:56:38.056Z,81.93
2023-02-27T06:57:38.096Z,82.04
2023-02-27T06:58:38.025Z,81.58
2023-02-27T06:59:38.019Z,81.48
2023-02-27T07:00:38.046Z,81.58
2023-02-27T07:01:38.095Z,81.58
2023-02-27T07:02:38.019Z,80.85
2023-02-27T07:03:37.988Z,80.53
2023-02-27T07:04:38.031Z,81.69
2023-02-27T07:05:37.967Z,81.05
2023-02-27T07:07:34.420Z,81.02
2023-02-27T07:07:39.207Z,81.44
2023-02-27T07:08:38.010Z,81.02
2023-02-27T07:09:39.085Z,80.81
2023-02-27T07:10:37.932Z,80.71
2023-02-27T07:11:37.901Z,81.02
2023-02-27T07:12:37.881Z,81.02
2023-02-27T07:13:37.883Z,80.81
2023-02-27T07:14:37.878Z,81.02
2023-02-27T07:15:37.908Z,81.44
2023-02-27T07:16:37.857Z,80.81
2023-02-27T07:17:37.857Z,80.29
2023-02-27T07:18:37.872Z,80.71
2023-02-27T07:19:37.845Z,79.97
2023-02-27T07:20:37.838Z,79.83
2023-02-27T07:21:37.809Z,79.93
2023-02-27T07:22:37.831Z,79.24
2023-02-27T07:23:37.788Z,78.67
2023-02-27T07:24:37.789Z,79.20
2023-02-27T07:25:37.776Z,78.89
2023-02-27T07:26:37.765Z,78.78
2023-02-27T07:27:37.781Z,79.06
2023-02-27T07:28:37.827Z,78.67
2023-02-27T07:29:37.731Z,78.96
2023-02-27T07:30:37.731Z,78.53
2023-02-27T07:31:37.770Z,78.33
2023-02-27T07:32:37.725Z,78.43
2023-02-27T07:33:37.717Z,78.01
2023-02-27T07:34:37.692Z,78.11
2023-02-27T07:35:37.728Z,78.29
2023-02-27T07:36:37.672Z,77.76
2023-02-27T07:37:37.684Z,77.45
2023-02-27T07:38:37.655Z,77.24
2023-02-27T07:39:37.648Z,77.24
2023-02-27T07:40:37.631Z,77.73
2023-02-27T07:41:37.633Z,77.42
2023-02-27T07:42:37.628Z,77.83
2023-02-27T07:43:37.617Z,77.83
2023-02-27T07:44:37.620Z,77.73
2023-02-27T07:45:37.587Z,78.15
2023-02-27T07:46:37.654Z,77.48
2023-02-27T07:47:37.560Z,77.20
2023-02-27T07:48:37.565Z,77.10
2023-02-27T07:49:37.569Z,76.96
2023-02-27T07:50:37.548Z,77.38
2023-02-27T07:51:37.543Z,77.07
2023-02-27T07:52:37.525Z,77.48
2023-02-27T07:53:37.517Z,76.96
2023-02-27T07:54:37.582Z,76.96
2023-02-27T07:55:37.507Z,76.54
2023-02-27T07:56:37.514Z,76.82
2023-02-27T07:57:37.488Z,76.54
2023-02-27T07:58:37.474Z,76.86
2023-02-27T07:59:37.490Z,76.82
2023-02-27T08:00:37.478Z,77.03
2023-02-27T08:01:37.447Z,76.51
2023-02-27T08:02:37.454Z,76.57
2023-02-27T08:03:37.428Z,76.47
2023-02-27T08:04:37.447Z,76.02
2023-02-27T08:05:37.464Z,75.60
2023-02-27T08:06:37.419Z,76.02
2023-02-27T08:07:37.384Z,75.46
2023-02-27T08:08:37.397Z,74.63
2023-02-27T08:09:37.362Z,74.52
2023-02-27T08:10:37.370Z,74.84
2023-02-27T08:11:37.372Z,75.04
2023-02-27T08:12:37.351Z,74.94
2023-02-27T08:14:03.487Z,74.84
2023-02-27T08:14:39.318Z,74.49
2023-02-27T08:15:37.335Z,74.69
2023-02-27T08:16:37.471Z,74.80
2023-02-27T08:17:37.326Z,73.86
2023-02-27T08:18:37.288Z,74.28
2023-02-27T08:19:37.270Z,74.28
2023-02-27T08:20:37.270Z,74.35
2023-02-27T08:21:37.299Z,73.65
2023-02-27T08:22:37.249Z,74.18
2023-02-27T08:23:37.248Z,74.07
2023-02-27T08:24:37.239Z,74.18
2023-02-27T08:25:37.236Z,73.44
2023-02-27T08:26:37.193Z,74.28
2023-02-27T08:27:37.195Z,74.28
2023-02-27T08:28:37.189Z,74.21
2023-02-27T08:29:37.206Z,74.21
2023-02-27T08:30:37.166Z,74.38
2023-02-27T08:31:37.203Z,74.42
2023-02-27T08:32:37.147Z,74.28
2023-02-27T08:33:37.143Z,74.38
2023-02-27T08:34:37.157Z,74.38
2023-02-27T08:35:37.132Z,74.59
2023-02-27T08:36:37.109Z,74.24
2023-02-27T08:37:37.084Z,73.17
2023-02-27T08:38:37.099Z,73.41
2023-02-27T08:39:37.078Z,73.20
2023-02-27T08:40:37.090Z,73.48
2023-02-27T08:41:37.082Z,72.92
2023-02-27T08:42:37.061Z,73.45
2023-02-27T08:43:37.033Z,72.23
2023-02-27T08:44:37.033Z,73.27
2023-02-27T08:45:37.053Z,73.55
2023-02-27T08:46:37.013Z,72.37
2023-02-27T08:47:36.998Z,71.30
2023-02-27T08:48:36.977Z,71.09
2023-02-27T08:49:36.974Z,69.70
2023-02-27T08:50:36.963Z,69.81
2023-02-27T08:51:36.968Z,69.31
2023-02-27T08:52:36.950Z,69.94
2023-02-27T08:53:36.934Z,69.63
2023-02-27T08:54:36.962Z,70.78
2023-02-27T08:55:36.910Z,70.67
2023-02-27T08:56:36.939Z,70.60
2023-02-27T08:57:36.899Z,70.67
2023-02-27T08:58:36.918Z,70.46
2023-02-27T08:59:36.925Z,70.07
2023-02-27T09:00:36.877Z,70.50
2023-02-27T09:01:36.884Z,70.91
2023-02-27T09:02:36.914Z,71.12
2023-02-27T09:03:36.832Z,71.01
2023-02-27T09:04:36.840Z,69.45
2023-02-27T09:05:36.821Z,69.66
2023-02-27T09:06:36.831Z,69.63
2023-02-27T09:07:36.813Z,68.32
2023-02-27T09:08:36.784Z,68.66
2023-02-27T09:09:36.798Z,67.49
2023-02-27T09:10:36.799Z,67.08
2023-02-27T09:11:38.663Z,66.03
2023-02-27T09:12:36.745Z,65.55
2023-02-27T09:13:36.754Z,66.06
2023-02-27T09:14:36.768Z,66.38
2023-02-27T09:15:36.734Z,65.55
2023-02-27T09:16:36.786Z,65.89
2023-02-27T09:17:36.688Z,66.65
2023-02-27T09:18:36.688Z,66.97
2023-02-27T09:19:36.703Z,65.35
2023-02-27T09:20:36.683Z,64.80
2023-02-27T09:21:36.705Z,62.86
2023-02-27T09:22:36.655Z,63.35
2023-02-27T09:23:36.669Z,62.41
2023-02-27T09:24:36.629Z,62.05
2023-02-27T09:25:36.628Z,60.85
2023-02-27T09:26:45.642Z,60.02
2023-02-27T09:27:38.613Z,59.63
2023-02-27T09:28:36.599Z,59.89
2023-02-27T09:29:36.618Z,60.64
2023-02-27T09:30:36.589Z,59.89
2023-02-27T09:31:36.610Z,61.69
2023-02-27T09:32:36.619Z,61.17
2023-02-27T09:33:36.545Z,61.58
2023-02-27T09:34:36.600Z,62.68
2023-02-27T09:35:36.561Z,63.28
2023-02-27T09:36:36.527Z,61.94
2023-02-27T09:37:36.517Z,60.72
2023-02-27T09:38:36.506Z,61.74
2023-02-27T09:39:36.510Z,61.95
2023-02-27T09:40:36.497Z,62.71
2023-02-27T09:41:36.487Z,62.81
2023-02-27T09:42:36.504Z,62.02
2023-02-27T09:43:36.506Z,61.14
2023-02-27T09:44:45.720Z,60.28
2023-02-27T09:45:37.508Z,59.22
2023-02-27T09:46:36.437Z,58.59
2023-02-27T09:47:36.446Z,58.88
2023-02-27T09:48:36.411Z,57.95
2023-02-27T09:49:36.410Z,56.78
2023-02-27T09:50:36.400Z,56.81
2023-02-27T09:51:36.390Z,58.18
2023-02-27T09:52:36.389Z,59.53
2023-02-27T09:53:36.363Z,59.37
2023-02-27T09:54:36.346Z,57.97
2023-02-27T09:55:36.343Z,55.56
2023-02-27T09:56:36.346Z,54.63
2023-02-27T09:57:36.309Z,52.56
2023-02-27T09:58:36.322Z,53.39
2023-02-27T09:59:36.308Z,53.05
2023-02-27T10:00:36.306Z,53.05
2023-02-27T10:01:36.283Z,52.44
2023-02-27T10:02:36.322Z,50.82
2023-02-27T10:03:36.280Z,52.48
2023-02-27T10:04:36.297Z,54.22
2023-02-27T10:05:37.245Z,54.32
2023-02-27T10:06:36.241Z,54.61
2023-02-27T10:08:08.135Z,53.16
2023-02-27T10:08:36.238Z,53.05
2023-02-27T10:09:36.266Z,52.62
2023-02-27T10:10:36.215Z,50.70
2023-02-27T10:11:36.195Z,50.49
2023-02-27T10:12:36.186Z,51.03
2023-02-27T10:13:36.186Z,52.69
2023-02-27T10:14:36.164Z,52.72
2023-02-27T10:15:36.182Z,53.17
2023-02-27T10:16:36.203Z,54.32
2023-02-27T10:17:36.174Z,54.39
2023-02-27T10:18:36.143Z,55.02
2023-02-27T10:19:36.139Z,54.73
2023-02-27T10:20:36.111Z,54.86
2023-02-27T10:21:36.109Z,54.32
2023-02-27T10:22:36.106Z,55.62
2023-02-27T10:23:36.089Z,55.30
2023-02-27T10:24:36.093Z,55.22
2023-02-27T10:25:36.081Z,55.64
2023-02-27T10:26:36.056Z,55.12
2023-02-27T10:27:36.059Z,56.05
2023-02-27T10:28:36.034Z,54.79
2023-02-27T10:29:36.042Z,54.50
2023-02-27T10:30:36.213Z,54.29
2023-02-27T10:31:36.139Z,55.17
2023-02-27T10:32:36.009Z,55.79
2023-02-27T10:33:35.991Z,56.31
2023-02-27T10:34:35.968Z,55.90
2023-02-27T10:35:36.066Z,55.38
2023-02-27T10:36:35.997Z,55.79
2023-02-27T10:37:35.969Z,55.87
2023-02-27T10:38:35.967Z,55.12
2023-02-27T10:39:35.967Z,54.81
2023-02-27T10:40:35.945Z,54.11
2023-02-27T10:41:35.924Z,54.73
2023-02-27T10:42:35.927Z,55.54
2023-02-27T10:43:35.899Z,55.51
2023-02-27T10:44:35.875Z,53.98
2023-02-27T10:45:37.894Z,53.49
2023-02-27T10:46:35.960Z,54.91
2023-02-27T10:47:35.862Z,53.85
2023-02-27T10:48:35.857Z,54.37
2023-02-27T10:49:35.841Z,54.00
2023-02-27T10:50:35.831Z,52.76
2023-02-27T10:51:35.808Z,51.21
2023-02-27T10:52:35.805Z,51.54
2023-02-27T10:53:35.824Z,52.71
2023-02-27T10:54:35.780Z,52.52
2023-02-27T10:55:35.790Z,53.36
2023-02-27T10:56:35.793Z,52.58
2023-02-27T10:57:35.753Z,52.79
2023-02-27T10:58:35.748Z,52.48
2023-02-27T10:59:36.736Z,52.56
2023-02-27T11:00:35.770Z,51.03
2023-02-27T11:01:35.765Z,50.92
2023-02-27T11:02:35.726Z,52.17
2023-02-27T11:03:35.728Z,51.34
2023-02-27T11:04:35.776Z,52.06
2023-02-27T11:05:35.677Z,52.56
2023-02-27T11:06:35.668Z,50.92
2023-02-27T11:07:35.665Z,52.81
2023-02-27T11:08:35.660Z,52.81
2023-02-27T11:09:35.662Z,52.29
2023-02-27T11:10:35.634Z,53.10
2023-02-27T11:11:35.603Z,53.20
2023-02-27T11:12:35.624Z,52.48
2023-02-27T11:13:35.594Z,52.17
2023-02-27T11:14:35.612Z,52.19
2023-02-27T11:15:35.647Z,52.94
2023-02-27T11:16:35.564Z,52.62
2023-02-27T11:17:35.580Z,52.21
2023-02-27T11:18:35.575Z,52.73
2023-02-27T11:19:35.603Z,53.75
2023-02-27T11:20:35.543Z,53.00
2023-02-27T11:21:35.545Z,53.28
2023-02-27T11:22:35.536Z,52.79
2023-02-27T11:23:35.518Z,52.56
2023-02-27T11:24:35.503Z,53.08
2023-02-27T11:25:35.479Z,52.14
2023-02-27T11:26:35.546Z,52.09
2023-02-27T11:27:35.477Z,53.44
2023-02-27T11:28:35.459Z,53.15
2023-02-27T11:29:35.445Z,53.56
2023-02-27T11:30:35.433Z,53.90
2023-02-27T11:31:35.484Z,54.39
2023-02-27T11:32:35.416Z,53.33
2023-02-27T11:33:35.415Z,53.72
2023-02-27T11:34:35.414Z,53.00
2023-02-27T11:35:35.410Z,53.30
2023-02-27T11:36:35.388Z,53.00
2023-02-27T11:37:35.399Z,53.54
2023-02-27T11:38:35.383Z,53.64
2023-02-27T11:39:35.349Z,53.59
2023-02-27T11:40:35.358Z,54.37
2023-02-27T11:41:35.322Z,53.72
2023-02-27T11:42:35.316Z,53.72
2023-02-27T11:43:35.342Z,53.30
2023-02-27T11:44:50.843Z,53.80
2023-02-27T11:46:17.651Z,53.28
2023-02-27T11:46:47.994Z,52.64
2023-02-27T11:47:36.335Z,52.43
2023-02-27T11:48:35.293Z,52.43
2023-02-27T11:49:35.274Z,53.08
2023-02-27T11:50:35.310Z,53.08
2023-02-27T11:51:35.227Z,52.74
2023-02-27T11:52:35.212Z,52.43
2023-02-27T11:53:36.191Z,52.64
2023-02-27T11:54:35.284Z,52.64
2023-02-27T11:55:35.186Z,52.69
2023-02-27T11:56:36.267Z,52.46
2023-02-27T11:57:36.158Z,53.08
2023-02-27T11:58:35.159Z,50.49
2023-02-27T11:59:35.182Z,52.36
2023-02-27T12:00:35.158Z,51.01
2023-02-27T12:01:35.148Z,50.51
2023-02-27T12:02:36.596Z,50.62
2023-02-27T12:03:35.151Z,52.67
2023-02-27T12:04:35.122Z,51.94
2023-02-27T12:05:35.089Z,50.80
2023-02-27T12:06:35.073Z,49.91
2023-02-27T12:07:35.090Z,50.77
2023-02-27T12:08:35.069Z,51.93
2023-02-27T12:09:35.147Z,53.46
2023-02-27T12:10:35.058Z,52.95
2023-02-27T12:11:35.069Z,51.37
2023-02-27T12:12:35.027Z,52.72
2023-02-27T12:13:35.014Z,52.69
2023-02-27T12:14:35.027Z,52.90
2023-02-27T12:15:34.993Z,51.42
2023-02-27T12:16:35.548Z,51.32
2023-02-27T12:17:34.965Z,49.87
2023-02-27T12:18:35.022Z,51.21
2023-02-27T12:19:34.969Z,50.89
2023-02-27T12:20:34.961Z,50.55
2023-02-27T12:21:34.970Z,50.76
2023-02-27T12:22:34.921Z,50.96
2023-02-27T12:23:34.914Z,49.95
2023-02-27T12:24:34.902Z,51.28
2023-02-27T12:25:34.922Z,50.68
2023-02-27T12:26:34.916Z,51.21
2023-02-27T12:27:34.926Z,51.89
2023-02-27T12:28:34.885Z,51.07
2023-02-27T12:29:34.881Z,50.68
2023-02-27T12:30:34.846Z,50.55
2023-02-27T12:31:34.939Z,49.95
2023-02-27T12:32:34.938Z,50.03
2023-02-27T12:33:35.855Z,49.43
2023-02-27T12:34:34.808Z,50.10
2023-02-27T12:35:34.881Z,50.74
2023-02-27T12:36:34.812Z,52.01
2023-02-27T12:37:34.795Z,53.17
2023-02-27T12:38:37.396Z,53.17
2023-02-27T12:39:34.783Z,53.05
2023-02-27T12:40:34.756Z,53.36
2023-02-27T12:41:34.738Z,52.61
2023-02-27T12:42:34.788Z,53.10
2023-02-27T12:43:34.745Z,52.80
2023-02-27T12:44:34.704Z,52.87
2023-02-27T12:45:34.728Z,52.98
2023-02-27T12:46:34.692Z,52.07
2023-02-27T12:47:34.730Z,52.72
2023-02-27T12:48:34.665Z,53.23
2023-02-27T12:49:34.661Z,53.23
2023-02-27T12:50:34.652Z,52.30
2023-02-27T12:54:03.611Z,53.28
2023-02-27T12:54:43.480Z,53.17